Time;durP1;ratioP1;P1;durP2;ratioP2;P2;SDS_P1;SDS_P2;PMS_P1;PMS_P2;Temp;Humidity;BMP_temperature;BMP_pressure;BME280_temperature;BME280_humidity;BME280_pressure;Samples;Min_cycle;Max_cycle;Signal;HPM_P1;HPM_P2
2022/10/14 00:01:31;;;;;;;;;;;;;;;8.29;100.00;100817.84;5551288;32;34299;-68
2022/10/14 00:04:42;;;;;;;;;;;;;;;8.28;100.00;100816.16;5551365;32;34669;-68
2022/10/14 00:07:52;;;;;;;;;;;;;;;8.25;100.00;100821.72;5538791;32;34319;-67
2022/10/14 00:11:02;;;;;;;;;;;;;;;8.23;100.00;100821.03;5551019;32;34611;-68
2022/10/14 00:14:14;;;;;;;;;;;;;;;8.22;100.00;100818.53;5551233;32;34214;-68
2022/10/14 00:17:20;;;;;;;;;;;;;;;8.21;100.00;100820.34;5551065;32;34726;-67
2022/10/14 00:20:28;;;;;;;;;;;;;;;8.22;100.00;100813.25;5538029;32;34818;-67
2022/10/14 00:23:35;;;;;;;;;;;;;;;8.29;100.00;100809.91;5537750;32;34848;-68
2022/10/14 00:26:42;;;;;;;;;;;;;;;8.34;100.00;100812.12;5551012;32;34761;-67
2022/10/14 00:29:50;;;;;;;;;;;;;;;8.31;100.00;100809.78;5537467;32;34343;-68
2022/10/14 00:32:59;;;;;;;;;;;;;;;8.25;100.00;100811.16;5536667;32;34460;-68
2022/10/14 00:36:05;;;;;;;;;;;;;;;8.22;100.00;100800.88;5550766;32;34560;-67
2022/10/14 00:39:11;;;;;;;;;;;;;;;8.21;100.00;100801.84;5550908;32;34696;-68
2022/10/14 00:42:17;;;;;;;;;;;;;;;8.19;100.00;100802.94;5550901;32;34266;-69
2022/10/14 00:45:25;;;;;;;;;;;;;;;8.22;100.00;100800.03;5550793;32;34228;-68
2022/10/14 00:48:33;;;;;;;;;;;;;;;8.24;100.00;100803.34;5524309;32;34787;-68
2022/10/14 00:51:42;;;;;;;;;;;;;;;8.21;100.00;100806.28;5550780;32;34824;-68
2022/10/14 00:54:54;;;;;;;;;;;;;;;8.21;100.00;100795.72;5550859;32;34279;-68
2022/10/14 00:58:03;;;;;;;;;;;;;;;8.16;100.00;100797.97;5536263;32;34603;-68
2022/10/14 01:01:13;;;;;;;;;;;;;;;8.17;100.00;100799.63;5550917;32;34821;-68
2022/10/14 01:04:21;;;;;;;;;;;;;;;8.14;100.00;100795.44;5550644;32;34993;-69
2022/10/14 01:07:30;;;;;;;;;;;;;;;8.26;100.00;100788.19;5550717;32;33643;-69
2022/10/14 01:10:47;;;;;;;;;;;;;;;8.26;100.00;100786.41;5550563;32;34997;-68
2022/10/14 01:14:07;;;;;;;;;;;;;;;8.28;100.00;100794.16;5536760;32;35514;-68
2022/10/14 01:17:35;;;;;;;;;;;;;;;8.33;100.00;100785.87;5550394;32;34889;-68
2022/10/14 01:20:44;;;;;;;;;;;;;;;8.36;100.00;100788.22;5550732;32;34405;-68
2022/10/14 01:23:50;;;;;;;;;;;;;;;8.46;100.00;100795.12;5550418;32;34334;-68
2022/10/14 01:27:03;;;;;;;;;;;;;;;8.35;100.00;100794.47;5550361;32;34756;-69
2022/10/14 01:30:10;;;;;;;;;;;;;;;8.24;100.00;100780.41;5550085;32;35139;-69
2022/10/14 01:33:23;;;;;;;;;;;;;;;8.18;100.00;100785.44;5550342;32;34977;-68
2022/10/14 01:36:36;;;;;;;;;;;;;;;8.11;100.00;100786.97;5550128;32;34825;-69
2022/10/14 01:39:47;;;;;;;;;;;;;;;8.07;100.00;100783.78;5549223;32;34272;-68
2022/10/14 01:42:55;;;;;;;;;;;;;;;8.03;100.00;100778.94;5550155;32;34831;-68
2022/10/14 01:46:03;;;;;;;;;;;;;;;8.04;100.00;100781.41;5550396;32;34184;-68
2022/10/14 01:49:12;;;;;;;;;;;;;;;8.00;100.00;100780.03;5536841;32;34861;-68
2022/10/14 01:52:23;;;;;;;;;;;;;;;7.97;100.00;100774.22;5549953;32;34983;-69
2022/10/14 01:55:32;;;;;;;;;;;;;;;7.95;100.00;100770.88;5549934;32;34566;-69
2022/10/14 01:58:42;;;;;;;;;;;;;;;7.93;100.00;100765.75;5549845;32;34952;-69
2022/10/14 02:01:50;;;;;;;;;;;;;;;7.99;100.00;100769.63;5549709;32;34495;-68
2022/10/14 02:04:56;;;;;;;;;;;;;;;7.99;100.00;100773.06;5549621;32;34340;-68
2022/10/14 02:08:22;;;;;;;;;;;;;;;7.98;100.00;100774.06;5549581;32;35074;-68
2022/10/14 02:11:48;;;;;;;;;;;;;;;7.97;100.00;100775.03;5549453;32;34485;-68
2022/10/14 02:15:02;;;;;;;;;;;;;;;7.94;100.00;100777.94;5535306;32;34433;-69
2022/10/14 02:18:18;;;;;;;;;;;;;;;7.91;100.00;100777.41;5549427;32;34358;-69
2022/10/14 02:21:28;;;;;;;;;;;;;;;7.99;100.00;100774.91;5549338;32;34346;-68
2022/10/14 02:24:39;;;;;;;;;;;;;;;8.17;100.00;100760.81;5535228;32;34609;-69
2022/10/14 02:27:47;;;;;;;;;;;;;;;8.35;100.00;100768.87;5549157;32;34262;-69
2022/10/14 02:30:55;;;;;;;;;;;;;;;8.35;100.00;100766.22;5549317;32;34391;-69
2022/10/14 02:34:02;;;;;;;;;;;;;;;8.41;100.00;100770.09;5535093;32;34878;-69
2022/10/14 02:37:09;;;;;;;;;;;;;;;8.26;100.00;100769.69;5535234;32;35113;-69
2022/10/14 02:40:19;;;;;;;;;;;;;;;8.36;100.00;100767.91;5534906;32;34083;-69
2022/10/14 02:43:24;;;;;;;;;;;;;;;8.39;100.00;100770.25;5549047;32;34230;-68
2022/10/14 02:46:33;;;;;;;;;;;;;;;8.32;100.00;100761.22;5548954;32;34290;-69
2022/10/14 02:49:40;;;;;;;;;;;;;;;8.35;100.00;100766.22;5549221;32;34345;-68
2022/10/14 02:52:46;;;;;;;;;;;;;;;8.41;100.00;100765.66;5551144;32;34571;-68
2022/10/14 02:55:52;;;;;;;;;;;;;;;8.43;100.00;100768.97;5551875;32;34997;-68
2022/10/14 02:58:58;;;;;;;;;;;;;;;8.46;100.00;100767.88;5551776;32;34261;-68
2022/10/14 03:02:06;;;;;;;;;;;;;;;8.41;100.00;100762.19;5551917;32;34925;-69
2022/10/14 03:05:13;;;;;;;;;;;;;;;8.32;100.00;100763.03;5538442;32;34413;-68
2022/10/14 03:08:20;;;;;;;;;;;;;;;8.29;100.00;100772.91;5538393;32;34327;-69
2022/10/14 03:11:27;;;;;;;;;;;;;;;8.25;100.00;100768.87;5537746;32;34291;-68
2022/10/14 03:14:35;;;;;;;;;;;;;;;8.26;100.00;100773.19;5551748;32;34352;-69
2022/10/14 03:17:47;;;;;;;;;;;;;;;8.24;100.00;100769.84;5537842;32;32738;-68
2022/10/14 03:20:58;;;;;;;;;;;;;;;8.22;100.00;100768.31;5538769;32;34259;-69
2022/10/14 03:24:05;;;;;;;;;;;;;;;8.25;100.00;100771.50;5552001;32;34339;-68
2022/10/14 03:27:11;;;;;;;;;;;;;;;8.25;100.00;100775.97;5551755;32;34870;-68
2022/10/14 03:30:21;;;;;;;;;;;;;;;8.29;100.00;100777.34;5551492;32;34188;-68
2022/10/14 03:33:29;;;;;;;;;;;;;;;8.30;100.00;100771.09;5525097;32;35355;-68
2022/10/14 03:36:41;;;;;;;;;;;;;;;8.36;100.00;100764.41;5537270;32;34554;-67
2022/10/14 03:39:46;;;;;;;;;;;;;;;8.37;100.00;100761.63;5538067;32;34906;-68
2022/10/14 03:42:56;;;;;;;;;;;;;;;8.23;100.00;100762.03;5551767;32;34253;-69
2022/10/14 03:46:05;;;;;;;;;;;;;;;8.14;100.00;100761.09;5551429;32;34449;-68
2022/10/14 03:49:15;;;;;;;;;;;;;;;8.18;100.00;100756.38;5537489;32;35123;-68
2022/10/14 03:52:22;;;;;;;;;;;;;;;8.13;100.00;100759.41;5537366;32;34316;-68
2022/10/14 03:55:33;;;;;;;;;;;;;;;8.09;100.00;100757.22;5551365;32;34305;-68
2022/10/14 03:58:40;;;;;;;;;;;;;;;8.15;100.00;100756.66;5551334;32;34881;-68
2022/10/14 04:01:49;;;;;;;;;;;;;;;8.21;100.00;100751.63;5551238;32;34248;-69
2022/10/14 04:04:56;;;;;;;;;;;;;;;8.28;100.00;100750.06;5550700;32;34252;-69
2022/10/14 04:08:04;;;;;;;;;;;;;;;8.38;100.00;100751.87;5534362;32;540672;-69
2022/10/14 04:11:12;;;;;;;;;;;;;;;8.42;100.00;100751.47;5530260;32;35199;-68
2022/10/14 04:14:17;;;;;;;;;;;;;;;8.51;100.00;100747.94;5518633;32;35864;-68
2022/10/14 04:17:23;;;;;;;;;;;;;;;8.55;100.00;100743.19;5531644;32;34375;-69
2022/10/14 04:20:30;;;;;;;;;;;;;;;8.47;100.00;100740.44;5531086;32;34412;-69
2022/10/14 04:23:42;;;;;;;;;;;;;;;8.51;100.00;100736.53;5530716;32;34445;-69
2022/10/14 04:26:50;;;;;;;;;;;;;;;8.46;100.00;100736.13;5531815;32;34302;-69
2022/10/14 04:29:55;;;;;;;;;;;;;;;8.47;100.00;100741.25;5531386;32;34908;-69
2022/10/14 04:32:59;;;;;;;;;;;;;;;8.38;100.00;100739.50;5531540;32;35003;-69
2022/10/14 04:36:04;;;;;;;;;;;;;;;8.43;100.00;100734.59;5531695;32;34448;-69
2022/10/14 04:39:10;;;;;;;;;;;;;;;8.33;100.00;100740.94;5531342;32;34463;-69
2022/10/14 04:42:15;;;;;;;;;;;;;;;8.31;100.00;100737.59;5530605;32;35066;-70
2022/10/14 04:45:23;;;;;;;;;;;;;;;8.32;100.00;100737.44;5531154;32;34644;-70
2022/10/14 04:48:30;;;;;;;;;;;;;;;8.37;100.00;100732.56;5531522;32;34283;-69
2022/10/14 04:51:38;;;;;;;;;;;;;;;8.39;100.00;100733.22;5529652;32;34534;-70
2022/10/14 04:54:45;;;;;;;;;;;;;;;8.33;100.00;100731.16;5530143;32;34226;-69
2022/10/14 04:57:49;;;;;;;;;;;;;;;8.32;100.00;100737.44;5531320;32;34911;-70
2022/10/14 05:00:54;;;;;;;;;;;;;;;8.32;100.00;100745.37;5531250;32;35034;-69
2022/10/14 05:03:57;;;;;;;;;;;;;;;8.29;100.00;100741.19;5531704;32;34309;-70
2022/10/14 05:07:03;;;;;;;;;;;;;;;8.29;100.00;100742.97;5530114;32;34861;-70
2022/10/14 05:10:09;;;;;;;;;;;;;;;8.38;100.00;100744.78;5531510;32;34424;-70
2022/10/14 05:13:15;;;;;;;;;;;;;;;8.42;100.00;100746.19;5550397;32;34846;-69
2022/10/14 05:16:19;;;;;;;;;;;;;;;8.47;100.00;100743.09;5535330;32;35175;-68
2022/10/14 05:19:24;;;;;;;;;;;;;;;8.54;100.00;100747.66;5536351;32;35020;-69
2022/10/14 05:22:28;;;;;;;;;;;;;;;8.52;100.00;100743.50;5550197;32;35085;-69
2022/10/14 05:25:33;;;;;;;;;;;;;;;8.57;100.00;100739.41;5550244;32;34992;-70
2022/10/14 05:28:39;;;;;;;;;;;;;;;8.49;100.00;100744.59;5550335;32;35048;-70
2022/10/14 05:31:43;;;;;;;;;;;;;;;8.55;100.00;100754.59;5550060;32;34584;-69
2022/10/14 05:34:48;;;;;;;;;;;;;;;8.58;100.00;100756.94;5535893;32;34370;-70
2022/10/14 05:37:56;;;;;;;;;;;;;;;8.79;100.00;100759.37;5550228;32;34564;-70
2022/10/14 05:41:06;;;;;;;;;;;;;;;8.90;100.00;100753.88;5549922;32;35056;-69
2022/10/14 05:44:11;;;;;;;;;;;;;;;9.08;100.00;100757.38;5549703;32;34283;-69
2022/10/14 05:47:15;;;;;;;;;;;;;;;9.05;100.00;100762.97;5549382;32;34438;-69
2022/10/14 05:50:20;;;;;;;;;;;;;;;9.13;100.00;100755.13;5549390;32;34163;-69
2022/10/14 05:53:23;;;;;;;;;;;;;;;9.14;100.00;100763.91;5522984;32;34462;-69
2022/10/14 05:56:28;;;;;;;;;;;;;;;9.16;100.00;100761.94;5535879;32;34426;-69
2022/10/14 05:59:33;;;;;;;;;;;;;;;9.27;100.00;100767.00;5549088;32;34402;-70
2022/10/14 06:02:37;;;;;;;;;;;;;;;9.49;100.00;100773.66;5549434;32;34707;-70
2022/10/14 06:05:41;;;;;;;;;;;;;;;9.80;100.00;100776.78;5549411;32;34233;-69
2022/10/14 06:08:46;;;;;;;;;;;;;;;9.82;100.00;100774.81;5535970;32;34767;-69
2022/10/14 06:11:51;;;;;;;;;;;;;;;9.89;100.00;100775.84;5549023;32;35159;-70
2022/10/14 06:14:54;;;;;;;;;;;;;;;9.95;100.00;100784.03;5549318;32;34920;-70
2022/10/14 06:17:59;;;;;;;;;;;;;;;10.09;100.00;100779.16;5549261;32;34707;-70
2022/10/14 06:21:02;;;;;;;;;;;;;;;10.09;100.00;100785.28;5548988;32;34942;-69
2022/10/14 06:24:08;;;;;;;;;;;;;;;10.07;100.00;100789.09;5534525;32;34513;-69
2022/10/14 06:27:12;;;;;;;;;;;;;;;10.11;100.00;100793.09;5536647;32;35129;-69
2022/10/14 06:30:15;;;;;;;;;;;;;;;10.01;100.00;100786.06;5551445;32;34553;-69
2022/10/14 06:33:19;;;;;;;;;;;;;;;10.13;100.00;100783.97;5551301;32;34234;-69
2022/10/14 06:36:23;;;;;;;;;;;;;;;10.10;100.00;100792.25;5551607;32;34297;-70
2022/10/14 06:39:26;;;;;;;;;;;;;;;10.15;100.00;100792.63;5551777;32;34804;-69
2022/10/14 06:42:32;;;;;;;;;;;;;;;10.28;100.00;100795.72;5525264;32;35394;-69
2022/10/14 06:45:35;;;;;;;;;;;;;;;10.40;100.00;100785.69;5525582;32;34185;-68
2022/10/14 06:48:39;;;;;;;;;;;;;;;10.46;100.00;100791.19;5551734;32;34185;-69
2022/10/14 06:51:43;;;;;;;;;;;;;;;10.45;100.00;100791.38;5552048;32;34609;-68
2022/10/14 06:54:48;;;;;;;;;;;;;;;10.48;100.00;100790.22;5551673;32;34282;-69
2022/10/14 06:57:51;;;;;;;;;;;;;;;10.44;100.00;100789.69;5537940;32;35560;-69
2022/10/14 07:01:01;;;;;;;;;;;;;;;10.45;100.00;100799.31;5551652;32;34211;-69
2022/10/14 07:04:04;;;;;;;;;;;;;;;10.57;100.00;100799.87;5551536;32;34194;-69
2022/10/14 07:07:10;;;;;;;;;;;;;;;10.62;100.00;100802.87;5551286;32;34617;-70
2022/10/14 07:10:14;;;;;;;;;;;;;;;10.63;100.00;100804.56;5537177;32;34493;-70
2022/10/14 07:13:19;;;;;;;;;;;;;;;10.78;100.00;100808.28;5538181;32;35044;-69
2022/10/14 07:16:22;;;;;;;;;;;;;;;10.80;100.00;100807.13;5537792;32;34960;-68
2022/10/14 07:19:26;;;;;;;;;;;;;;;10.86;100.00;100800.34;5551130;32;34941;-68
2022/10/14 07:22:30;;;;;;;;;;;;;;;10.98;100.00;100798.25;5537428;32;35547;-68
2022/10/14 07:25:40;;;;;;;;;;;;;;;11.27;100.00;100802.19;5551359;32;34171;-69
2022/10/14 07:28:45;;;;;;;;;;;;;;;11.87;100.00;100791.31;5537252;32;34138;-68
2022/10/14 07:31:50;;;;;;;;;;;;;;;12.40;100.00;100795.25;5551301;32;34768;-68
2022/10/14 07:34:53;;;;;;;;;;;;;;;13.21;100.00;100800.34;5537154;32;34622;-68
2022/10/14 07:37:57;;;;;;;;;;;;;;;13.62;100.00;100800.91;5550198;32;34615;-69
2022/10/14 07:41:02;;;;;;;;;;;;;;;14.53;100.00;100806.16;5537475;32;34202;-68
2022/10/14 07:44:08;;;;;;;;;;;;;;;15.06;91.58;100802.34;5537217;32;34402;-70
2022/10/14 07:47:12;;;;;;;;;;;;;;;15.62;88.25;100806.13;5551335;32;34486;-69
2022/10/14 07:50:17;;;;;;;;;;;;;;;17.38;79.25;100815.59;5551506;32;34817;-69
2022/10/14 07:53:21;;;;;;;;;;;;;;;18.32;73.10;100807.50;5537363;32;33443;-69
2022/10/14 07:56:26;;;;;;;;;;;;;;;18.15;71.42;100796.37;5537675;32;35099;-69
2022/10/14 07:59:30;;;;;;;;;;;;;;;18.38;70.14;100798.63;5536821;32;34820;-70
2022/10/14 08:02:36;;;;;;;;;;;;;;;18.03;72.80;100788.09;5550693;32;34926;-69
2022/10/14 08:05:42;;;;;;;;;;;;;;;18.71;68.87;100788.66;5550910;32;34849;-69
2022/10/14 08:08:46;;;;;;;;;;;;;;;19.69;63.71;100783.91;5537470;32;35028;-70
2022/10/14 08:11:51;;;;;;;;;;;;;;;22.15;55.91;100790.63;5550880;32;34799;-69
2022/10/14 08:14:56;;;;;;;;;;;;;;;22.96;51.07;100786.00;5536936;32;35364;-70
2022/10/14 08:18:00;;;;;;;;;;;;;;;21.93;53.54;100782.25;5536664;32;34275;-70
2022/10/14 08:21:03;;;;;;;;;;;;;;;22.19;53.89;100773.72;5537010;32;34412;-70
2022/10/14 08:24:08;;;;;;;;;;;;;;;22.88;50.54;100780.97;5550910;32;34732;-70
2022/10/14 08:27:12;;;;;;;;;;;;;;;21.33;55.43;100784.16;5551030;32;34259;-70
2022/10/14 08:30:16;;;;;;;;;;;;;;;19.58;60.59;100771.94;5550949;32;34761;-69
2022/10/14 08:33:20;;;;;;;;;;;;;;;18.84;64.10;100772.50;5550645;32;34859;-69
2022/10/14 08:36:25;;;;;;;;;;;;;;;18.43;66.48;100764.72;5550696;32;34807;-69
2022/10/14 08:39:28;;;;;;;;;;;;;;;18.27;67.55;100765.16;5536783;32;35151;-68
2022/10/14 08:42:31;;;;;;;;;;;;;;;17.99;68.19;100753.81;5536936;32;35388;-69
2022/10/14 08:45:41;;;;;;;;;;;;;;;17.04;72.21;100759.41;5536763;32;34865;-68
2022/10/14 08:48:46;;;;;;;;;;;;;;;16.92;74.46;100756.44;5536572;32;34362;-67
2022/10/14 08:52:00;;;;;;;;;;;;;;;16.70;73.92;100746.88;5550516;32;34350;-68
2022/10/14 08:55:14;;;;;;;;;;;;;;;16.39;77.92;100744.59;5550656;32;34104;-68
2022/10/14 08:58:24;;;;;;;;;;;;;;;16.00;76.22;100756.69;5550571;32;35036;-69
2022/10/14 09:01:30;;;;;;;;;;;;;;;16.01;77.06;100754.84;5536850;32;34198;-69
2022/10/14 09:04:34;;;;;;;;;;;;;;;15.85;77.35;100755.94;5550490;32;34841;-68
2022/10/14 09:07:40;;;;;;;;;;;;;;;15.75;79.94;100755.44;5550276;32;34456;-69
2022/10/14 09:10:44;;;;;;;;;;;;;;;15.86;77.93;100754.09;5536843;32;35244;-68
2022/10/14 09:13:50;;;;;;;;;;;;;;;15.63;79.15;100759.66;5550071;32;34940;-68
2022/10/14 09:16:59;;;;;;;;;;;;;;;15.72;78.24;100760.34;5549803;32;34554;-68
2022/10/14 09:20:12;;;;;;;;;;;;;;;15.75;77.47;100759.97;5536040;32;34277;-69
2022/10/14 09:23:18;;;;;;;;;;;;;;;15.86;77.96;100754.94;5536136;32;35340;-69
2022/10/14 09:26:23;;;;;;;;;;;;;;;15.88;80.70;100750.19;5536576;32;32644;-69
2022/10/14 09:29:46;;;;;;;;;;;;;;;15.94;80.20;100745.91;5549968;32;34939;-68
2022/10/14 09:32:53;;;;;;;;;;;;;;;16.04;79.56;100746.41;5550061;32;34673;-69
2022/10/14 09:35:57;;;;;;;;;;;;;;;16.14;79.81;100756.78;5536810;32;34916;-68
2022/10/14 09:39:07;;;;;;;;;;;;;;;16.17;79.99;100756.41;5550328;32;34763;-68
2022/10/14 09:42:14;;;;;;;;;;;;;;;16.31;80.03;100753.62;5550004;32;34501;-69
2022/10/14 09:45:23;;;;;;;;;;;;;;;16.51;78.93;100754.56;5550623;32;34026;-69
2022/10/14 09:48:46;;;;;;;;;;;;;;;16.68;78.54;100752.44;5536060;32;34583;-67
2022/10/14 09:51:50;;;;;;;;;;;;;;;16.66;77.72;100746.44;5549797;32;34967;-68
2022/10/14 09:54:55;;;;;;;;;;;;;;;16.85;78.28;100753.72;5535943;32;34631;-69
2022/10/14 09:57:59;;;;;;;;;;;;;;;16.88;77.69;100749.84;5549893;32;34210;-69
2022/10/14 10:01:04;;;;;;;;;;;;;;;17.01;77.46;100747.22;5550035;32;35007;-69
2022/10/14 10:04:27;;;;;;;;;;;;;;;16.91;79.37;100749.44;5538913;32;33818;-70
2022/10/14 10:07:32;;;;;;;;;;;;;;;17.12;77.54;100748.50;5537863;32;34851;-68
2022/10/14 10:10:36;;;;;;;;;;;;;;;17.08;77.34;100745.41;5551494;32;34373;-68
2022/10/14 10:13:45;;;;;;;;;;;;;;;17.13;76.99;100750.16;5551815;32;34325;-68
2022/10/14 10:17:06;;;;;;;;;;;;;;;17.20;77.08;100743.75;5537853;32;33112;-68
2022/10/14 10:20:13;;;;;;;;;;;;;;;17.22;78.15;100733.69;5536510;32;36951;-68
2022/10/14 10:23:17;;;;;;;;;;;;;;;17.34;78.12;100736.56;5537773;32;35279;-68
2022/10/14 10:26:24;;;;;;;;;;;;;;;17.51;77.60;100737.03;5537967;32;34593;-68
2022/10/14 10:29:30;;;;;;;;;;;;;;;17.60;75.82;100735.84;5551287;32;34488;-68
2022/10/14 10:32:41;;;;;;;;;;;;;;;17.63;76.87;100728.19;5550973;32;34699;-68
2022/10/14 10:35:51;;;;;;;;;;;;;;;17.47;76.08;100725.91;5525148;32;35728;-69
2022/10/14 10:39:00;;;;;;;;;;;;;;;17.87;75.45;100721.37;5551584;32;34899;-68
2022/10/14 10:42:23;;;;;;;;;;;;;;;17.95;73.29;100717.69;5551540;32;34872;-68
2022/10/14 10:45:37;;;;;;;;;;;;;;;17.96;73.34;100716.66;5537947;32;33892;-68
2022/10/14 10:48:41;;;;;;;;;;;;;;;18.10;71.36;100708.37;5551532;32;34198;-68
2022/10/14 10:51:52;;;;;;;;;;;;;;;18.35;72.49;100702.34;5537631;32;34435;-68
2022/10/14 10:54:59;;;;;;;;;;;;;;;18.59;71.32;100707.84;5551491;32;34386;-68
2022/10/14 10:58:03;;;;;;;;;;;;;;;19.94;65.00;100703.97;5551669;32;34244;-67
2022/10/14 11:01:20;;;;;;;;;;;;;;;23.63;53.46;100707.69;5525107;32;33415;-68
2022/10/14 11:04:37;;;;;;;;;;;;;;;26.16;44.60;100705.28;5537906;32;32510;-68
2022/10/14 11:15:03;;;;;;;;;;;;;;;30.32;33.20;100691.63;5536893;32;34563;-69
2022/10/14 11:18:13;;;;;;;;;;;;;;;29.40;33.90;100694.37;5537400;32;36091;-69
2022/10/14 11:21:36;;;;;;;;;;;;;;;30.82;32.11;100688.28;5551233;32;34281;-69
2022/10/14 11:24:39;;;;;;;;;;;;;;;30.00;32.36;100690.31;5537104;32;32637;-69
2022/10/14 11:28:06;;;;;;;;;;;;;;;28.45;35.68;100680.09;5537472;32;34253;-69
2022/10/14 11:31:25;;;;;;;;;;;;;;;29.96;33.38;100677.50;5551305;32;34795;-68
2022/10/14 11:34:41;;;;;;;;;;;;;;;28.69;34.60;100666.63;5537711;32;34063;-70
2022/10/14 11:38:00;;;;;;;;;;;;;;;28.79;34.20;100672.88;5537199;32;34816;-69
2022/10/14 11:41:06;;;;;;;;;;;;;;;29.42;33.51;100670.31;5552135;32;34924;-69
2022/10/14 11:44:14;;;;;;;;;;;;;;;28.09;34.83;100666.53;5537377;32;35554;-69
2022/10/14 11:47:30;;;;;;;;;;;;;;;27.59;35.49;100663.87;5537554;32;34565;-69
2022/10/14 11:50:39;;;;;;;;;;;;;;;27.56;35.62;100659.78;5551029;32;34268;-69
2022/10/14 11:53:47;;;;;;;;;;;;;;;29.15;34.79;100654.34;5551107;32;34332;-69
2022/10/14 11:56:59;;;;;;;;;;;;;;;31.45;30.27;100652.28;5551016;32;34446;-69
2022/10/14 12:00:11;;;;;;;;;;;;;;;33.27;27.65;100651.38;5537369;32;34277;-69
2022/10/14 12:03:20;;;;;;;;;;;;;;;32.17;28.86;100645.25;5550936;32;34266;-69
2022/10/14 12:06:28;;;;;;;;;;;;;;;30.51;29.92;100645.97;5537364;32;34346;-69
2022/10/14 12:09:37;;;;;;;;;;;;;;;28.87;32.54;100644.16;5537485;32;34250;-68
2022/10/14 12:12:44;;;;;;;;;;;;;;;27.80;35.20;100642.84;5550677;32;34718;-68
2022/10/14 12:15:51;;;;;;;;;;;;;;;28.96;31.98;100642.44;5537039;32;35136;-68
2022/10/14 12:18:56;;;;;;;;;;;;;;;30.02;30.84;100638.03;5537073;32;34102;-69
2022/10/14 12:22:13;;;;;;;;;;;;;;;28.34;34.79;100641.09;5550652;32;34602;-68
2022/10/14 12:25:19;;;;;;;;;;;;;;;27.99;35.68;100631.09;5536611;32;33143;-67
2022/10/14 12:28:22;;;;;;;;;;;;;;;28.19;34.54;100634.88;5550240;32;34512;-68
2022/10/14 12:31:35;;;;;;;;;;;;;;;26.78;37.58;100614.69;5537078;32;34477;-68
2022/10/14 12:34:40;;;;;;;;;;;;;;;24.71;43.66;100615.97;5551061;32;34854;-67
2022/10/14 12:37:49;;;;;;;;;;;;;;;23.35;47.47;100608.38;5536275;32;34593;-67
2022/10/14 12:40:52;;;;;;;;;;;;;;;22.18;50.13;100600.97;5551023;32;34830;-68
2022/10/14 12:43:58;;;;;;;;;;;;;;;22.28;49.32;100593.09;5550787;32;34819;-67
2022/10/14 12:47:03;;;;;;;;;;;;;;;21.67;51.30;100600.69;5550758;32;34168;-67
2022/10/14 12:50:14;;;;;;;;;;;;;;;21.39;52.67;100591.62;5536934;32;34292;-67
2022/10/14 12:53:22;;;;;;;;;;;;;;;21.49;53.42;100594.56;5550398;32;34909;-66
2022/10/14 12:56:31;;;;;;;;;;;;;;;21.14;55.05;100592.66;5550511;32;34359;-67
2022/10/14 12:59:36;;;;;;;;;;;;;;;21.01;56.80;100587.41;5550567;32;35020;-68
2022/10/14 13:02:46;;;;;;;;;;;;;;;20.93;54.85;100593.13;5536809;32;33784;-67
2022/10/14 13:05:49;;;;;;;;;;;;;;;20.81;55.14;100593.13;5537104;32;34264;-67
2022/10/14 13:09:11;;;;;;;;;;;;;;;20.71;55.21;100589.31;5550531;32;34611;-67
2022/10/14 13:12:18;;;;;;;;;;;;;;;20.69;55.16;100578.75;5550265;32;34389;-67
2022/10/14 13:15:33;;;;;;;;;;;;;;;20.47;56.47;100587.56;5536745;32;34462;-67
2022/10/14 13:18:48;;;;;;;;;;;;;;;20.38;56.40;100584.38;5536694;32;34294;-67
2022/10/14 13:21:52;;;;;;;;;;;;;;;20.46;57.58;100583.22;5536261;32;34839;-67
2022/10/14 13:25:13;;;;;;;;;;;;;;;20.22;57.56;100587.66;5536574;32;34223;-67
2022/10/14 13:28:27;;;;;;;;;;;;;;;20.39;57.95;100586.81;5549964;32;34332;-67
2022/10/14 13:31:30;;;;;;;;;;;;;;;20.17;58.56;100574.84;5535961;32;35286;-67
2022/10/14 13:34:38;;;;;;;;;;;;;;;20.28;58.03;100575.97;5536394;32;35501;-67
2022/10/14 13:37:43;;;;;;;;;;;;;;;20.18;57.83;100575.69;5534715;32;35283;-66
2022/10/14 13:40:50;;;;;;;;;;;;;;;20.57;58.01;100577.06;5549508;32;34161;-67
2022/10/14 13:43:55;;;;;;;;;;;;;;;21.07;56.47;100572.16;5550165;32;34318;-67
2022/10/14 13:46:59;;;;;;;;;;;;;;;21.38;55.13;100571.91;5549383;32;34254;-67
2022/10/14 13:50:03;;;;;;;;;;;;;;;21.74;52.18;100570.81;5535947;32;34576;-67
2022/10/14 13:53:15;;;;;;;;;;;;;;;21.50;52.90;100566.50;5549284;32;34898;-66
2022/10/14 13:56:21;;;;;;;;;;;;;;;21.09;55.31;100564.69;5549017;32;34397;-67
2022/10/14 13:59:26;;;;;;;;;;;;;;;20.89;56.64;100561.47;5549357;32;34820;-67
2022/10/14 14:02:52;;;;;;;;;;;;;;;20.95;55.99;100557.84;5549078;32;35093;-67
2022/10/14 14:06:14;;;;;;;;;;;;;;;20.56;57.53;100561.94;5549127;32;34264;-67
2022/10/14 14:09:21;;;;;;;;;;;;;;;20.42;57.25;100553.22;5549536;32;34389;-67
2022/10/14 14:12:25;;;;;;;;;;;;;;;20.02;59.03;100550.16;5549118;32;35055;-67
2022/10/14 14:15:29;;;;;;;;;;;;;;;19.83;59.61;100549.34;5535113;32;34311;-67
2022/10/14 14:18:35;;;;;;;;;;;;;;;19.91;59.57;100551.75;5548621;32;34653;-67
2022/10/14 14:22:11;;;;;;;;;;;;;;;19.65;61.15;100548.53;5535014;32;33686;-67
2022/10/14 14:25:27;;;;;;;;;;;;;;;19.54;62.41;100547.38;5548635;32;34681;-67
2022/10/14 14:28:45;;;;;;;;;;;;;;;19.37;64.60;100541.69;5534896;32;33584;-67
2022/10/14 14:31:50;;;;;;;;;;;;;;;19.19;64.69;100548.91;5534591;32;35267;-67
2022/10/14 14:35:11;;;;;;;;;;;;;;;18.83;67.10;100545.03;5548423;32;35064;-66
2022/10/14 14:38:24;;;;;;;;;;;;;;;18.77;66.31;100529.78;5534209;32;34457;-66
2022/10/14 14:41:30;;;;;;;;;;;;;;;18.65;67.56;100540.41;5548217;32;34271;-67
2022/10/14 14:44:35;;;;;;;;;;;;;;;18.61;67.42;100543.75;5548226;32;34179;-67
2022/10/14 14:47:41;;;;;;;;;;;;;;;18.38;69.34;100541.56;5549114;32;34218;-66
2022/10/14 14:50:47;;;;;;;;;;;;;;;18.28;70.13;100546.59;5550942;32;34586;-67
2022/10/14 14:53:54;;;;;;;;;;;;;;;18.21;70.66;100540.41;5536773;32;34144;-67
2022/10/14 14:56:59;;;;;;;;;;;;;;;18.03;72.29;100541.09;5551066;32;34241;-66
2022/10/14 15:00:04;;;;;;;;;;;;;;;17.86;71.83;100536.44;5551016;32;34425;-67
2022/10/14 15:03:08;;;;;;;;;;;;;;;17.66;74.81;100537.31;5537916;32;34261;-67
2022/10/14 15:06:14;;;;;;;;;;;;;;;17.32;77.46;100533.00;5524646;32;34626;-67
2022/10/14 15:09:23;;;;;;;;;;;;;;;17.14;79.21;100526.59;5537912;32;34335;-67
2022/10/14 15:12:30;;;;;;;;;;;;;;;17.01;79.87;100523.91;5551111;32;34251;-67
2022/10/14 15:15:38;;;;;;;;;;;;;;;16.95;79.72;100530.91;5536954;32;36430;-67
2022/10/14 15:18:44;;;;;;;;;;;;;;;16.86;81.06;100522.25;5536936;32;32615;-67
2022/10/14 15:22:08;;;;;;;;;;;;;;;16.70;81.25;100528.00;5550807;32;34228;-67
2022/10/14 15:25:29;;;;;;;;;;;;;;;16.55;83.08;100522.00;5551037;32;34822;-67
2022/10/14 15:28:35;;;;;;;;;;;;;;;16.46;84.53;100526.69;5550437;32;34904;-67
2022/10/14 15:31:46;;;;;;;;;;;;;;;16.25;85.64;100532.22;5550909;32;34315;-68
2022/10/14 15:34:55;;;;;;;;;;;;;;;16.14;85.93;100526.59;5550579;32;34441;-67
2022/10/14 15:38:01;;;;;;;;;;;;;;;16.02;85.62;100526.34;5536844;32;33487;-67
2022/10/14 15:41:08;;;;;;;;;;;;;;;15.91;86.18;100530.41;5550722;32;34290;-66
2022/10/14 15:44:12;;;;;;;;;;;;;;;15.80;86.74;100536.31;5537064;32;35002;-66
2022/10/14 15:47:18;;;;;;;;;;;;;;;15.71;87.72;100537.50;5524457;32;33213;-67
2022/10/14 15:50:24;;;;;;;;;;;;;;;15.63;88.75;100543.03;5536371;32;33410;-66
2022/10/14 15:53:30;;;;;;;;;;;;;;;15.49;89.73;100541.25;5550627;32;34510;-67
2022/10/14 15:56:38;;;;;;;;;;;;;;;15.39;91.13;100544.28;5550438;32;34880;-67
2022/10/14 15:59:45;;;;;;;;;;;;;;;15.27;92.09;100543.16;5549847;32;35091;-67
2022/10/14 16:02:54;;;;;;;;;;;;;;;15.16;93.33;100541.81;5537108;32;34807;-67
2022/10/14 16:05:59;;;;;;;;;;;;;;;15.10;94.87;100553.28;5537557;32;34781;-67
2022/10/14 16:09:11;;;;;;;;;;;;;;;15.08;96.13;100551.84;5536785;32;34898;-66
2022/10/14 16:12:18;;;;;;;;;;;;;;;15.02;96.24;100553.44;5536679;32;34641;-67